Time;durP1;ratioP1;P1;durP2;ratioP2;P2;SDS_P1;SDS_P2;PMS_P1;PMS_P2;Temp;Humidity;BMP_temperature;BMP_pressure;BME280_temperature;BME280_humidity;BME280_pressure;Samples;Min_cycle;Max_cycle;Signal;HPM_P1;HPM_P2
2022/05/17 00:02:07;;;;;;;6.35;3.30;;;17.10;99.90;;;17.37;96.64;101415.97;5166862;28;20149;-73
2022/05/17 00:04:39;;;;;;;5.13;3.03;;;17.10;99.90;;;17.36;96.57;101419.44;5166848;28;20047;-73
2022/05/17 00:07:12;;;;;;;7.38;3.63;;;17.10;99.90;;;17.32;96.64;101417.63;5166800;28;20050;-73
2022/05/17 00:09:45;;;;;;;7.10;3.30;;;17.00;99.90;;;17.30;96.59;101420.22;5166772;28;20053;-73
2022/05/17 00:12:17;;;;;;;5.45;3.25;;;17.00;99.90;;;17.27;96.28;101421.91;5166774;28;20054;-73
2022/05/17 00:14:49;;;;;;;5.30;3.10;;;17.00;99.90;;;17.21;96.00;101419.16;5166753;28;20514;-72
2022/05/17 00:17:23;;;;;;;7.88;3.97;;;16.90;99.90;;;17.16;95.81;101431.41;5166363;28;20065;-73
2022/05/17 00:19:55;;;;;;;6.68;3.65;;;16.80;99.90;;;17.09;95.87;101433.03;5166460;28;20491;-71
2022/05/17 00:22:27;;;;;;;5.88;3.72;;;16.80;99.90;;;17.01;95.65;101432.88;5166507;28;20046;-72
2022/05/17 00:25:00;;;;;;;5.80;3.72;;;16.70;99.90;;;16.95;95.49;101432.78;5166423;28;20533;-73
2022/05/17 00:27:32;;;;;;;4.82;3.00;;;16.70;99.90;;;16.88;95.42;101422.97;5166465;28;20494;-73
2022/05/17 00:30:05;;;;;;;7.88;3.65;;;16.60;99.90;;;16.84;95.49;101434.31;5165141;28;20141;-73
2022/05/17 00:32:38;;;;;;;6.25;3.60;;;16.50;99.90;;;16.78;95.32;101428.94;5165999;28;20050;-73
2022/05/17 00:35:11;;;;;;;5.82;3.42;;;16.50;99.90;;;16.72;95.49;101431.44;5165975;28;20057;-73
2022/05/17 00:37:43;;;;;;;5.57;3.15;;;16.40;99.90;;;16.68;95.63;101427.81;5165941;28;20132;-73
2022/05/17 00:40:16;;;;;;;7.95;3.60;;;16.40;99.90;;;16.66;95.56;101428.66;5165829;28;20047;-73
2022/05/17 00:42:48;;;;;;;7.13;4.00;;;16.30;99.90;;;16.64;95.91;101417.22;5166331;28;20046;-75
2022/05/17 00:45:21;;;;;;;4.75;3.30;;;16.40;99.90;;;16.62;96.23;101422.41;5166043;28;20407;-73
2022/05/17 00:48:04;;;;;;;7.10;3.60;;;16.40;99.90;;;16.60;95.99;101418.00;5165763;28;20061;-72
2022/05/17 00:50:42;;;;;;;4.68;2.97;;;16.30;99.90;;;16.57;95.75;101424.09;5165822;28;20054;-73
2022/05/17 00:53:21;;;;;;;4.40;2.72;;;16.30;99.90;;;16.55;95.62;101417.88;5166135;28;20056;-73
2022/05/17 00:55:56;;;;;;;5.57;3.15;;;16.30;99.90;;;16.53;95.83;101412.59;5165910;28;20050;-74
2022/05/17 00:58:34;;;;;;;7.75;3.03;;;16.30;99.90;;;16.54;96.23;101414.38;5165824;28;20415;-71
2022/05/17 01:01:10;;;;;;;5.75;3.50;;;16.30;99.90;;;16.57;96.76;101415.31;5165644;28;20057;-73
2022/05/17 01:03:51;;;;;;;6.93;3.15;;;16.30;99.90;;;16.55;96.70;101400.34;5165954;28;20057;-73
2022/05/17 01:06:26;;;;;;;6.43;3.67;;;16.30;99.90;;;16.50;96.33;101401.16;5165223;28;20058;-73
2022/05/17 01:08:59;;;;;;;6.95;3.72;;;16.30;99.90;;;16.48;96.26;101413.38;5165485;28;20311;-72
2022/05/17 01:11:31;;;;;;;6.72;4.00;;;16.20;99.90;;;16.44;95.90;101404.53;5165656;28;20473;-72
2022/05/17 01:16:53;;;;;;;4.47;3.03;;;16.20;99.90;;;16.40;95.84;101409.69;5165294;28;20088;-73
2022/05/17 01:19:27;;;;;;;6.30;3.13;;;16.10;99.90;;;16.38;96.16;101401.78;5165099;28;20085;-73
2022/05/17 01:22:00;;;;;;;6.00;3.20;;;16.10;99.90;;;16.39;96.07;101402.66;5165506;28;20431;-73
2022/05/17 01:24:32;;;;;;;7.03;3.25;;;16.10;99.90;;;16.36;95.73;101406.09;5165193;28;20053;-74
2022/05/17 01:27:11;;;;;;;5.75;3.10;;;16.10;99.90;;;16.32;95.43;101412.16;5164957;28;20058;-73
2022/05/17 01:29:46;;;;;;;4.65;2.42;;;16.10;99.90;;;16.31;95.66;101409.50;5165160;28;20133;-73
2022/05/17 01:32:18;;;;;;;4.93;3.22;;;16.00;99.90;;;16.27;95.29;101408.53;5164924;28;20060;-73
2022/05/17 01:34:51;;;;;;;5.35;3.10;;;16.00;99.90;;;16.22;95.08;101410.19;5165204;28;20050;-72
2022/05/17 01:37:24;;;;;;;5.72;3.17;;;15.90;99.90;;;16.15;94.98;101413.53;5164979;28;20140;-73
2022/05/17 01:39:56;;;;;;;4.43;2.83;;;15.90;99.90;;;16.10;94.97;101409.91;5164638;28;20050;-73
2022/05/17 01:42:28;;;;;;;4.97;3.03;;;15.80;99.90;;;16.07;95.06;101420.38;5165246;28;20372;-74
2022/05/17 01:45:00;;;;;;;4.88;3.08;;;15.80;99.90;;;16.01;95.13;101416.75;5165024;28;20046;-72
2022/05/17 01:47:32;;;;;;;4.85;3.00;;;15.70;99.90;;;15.99;95.25;101412.31;5164865;28;20056;-73
2022/05/17 01:50:06;;;;;;;5.78;3.33;;;15.80;99.90;;;15.94;95.09;101409.59;5165024;28;20054;-73
2022/05/17 01:52:39;;;;;;;5.22;2.85;;;15.70;99.90;;;15.93;95.10;101410.44;5165182;28;20054;-73
2022/05/17 01:55:12;;;;;;;5.72;3.40;;;15.70;99.90;;;15.91;95.37;101409.53;5164978;28;20046;-72
2022/05/17 01:57:44;;;;;;;6.55;3.47;;;15.60;99.90;;;15.89;95.59;101405.94;5165121;28;20057;-73
2022/05/17 02:00:18;;;;;;;6.22;3.55;;;15.60;99.90;;;15.88;95.64;101404.19;5164916;28;20046;-73
2022/05/17 02:02:51;;;;;;;6.93;3.10;;;15.60;99.90;;;15.87;95.57;101409.41;5165140;28;20052;-73
2022/05/17 02:05:26;;;;;;;5.00;3.38;;;15.60;99.90;;;15.84;95.17;101411.97;5164824;28;20054;-73
2022/05/17 02:07:59;;;;;;;5.75;3.63;;;15.60;99.90;;;15.80;95.29;101408.38;5164777;28;20046;-73
2022/05/17 02:10:31;;;;;;;4.47;2.80;;;15.50;99.90;;;15.77;94.84;101416.19;5164840;28;20073;-72
2022/05/17 02:13:04;;;;;;;5.13;3.13;;;15.50;99.90;;;15.73;94.98;101409.97;5165027;28;20503;-73
2022/05/17 02:15:37;;;;;;;5.03;3.03;;;15.50;99.90;;;15.71;95.07;101416.03;5164756;28;20054;-73
2022/05/17 02:18:09;;;;;;;6.80;3.50;;;15.40;99.90;;;15.69;95.25;101412.50;5164904;28;20471;-73
2022/05/17 02:20:41;;;;;;;6.15;3.30;;;15.40;99.90;;;15.66;95.32;101417.69;5164518;28;20046;-73
2022/05/17 02:23:14;;;;;;;7.10;3.22;;;15.40;99.90;;;15.63;95.16;101423.75;5164602;28;20053;-73
2022/05/17 02:25:47;;;;;;;5.00;2.88;;;15.40;99.90;;;15.59;94.97;101415.75;5164744;28;20053;-73
2022/05/17 02:28:19;;;;;;;5.82;3.22;;;15.40;99.90;;;15.55;94.89;101408.63;5164910;28;20522;-73
2022/05/17 02:30:51;;;;;;;5.47;2.80;;;15.30;99.90;;;15.52;95.09;101414.69;5164922;28;20402;-74
2022/05/17 02:33:23;;;;;;;4.63;2.75;;;15.30;99.90;;;15.55;95.31;101413.88;5164516;28;20059;-73
2022/05/17 02:35:55;;;;;;;4.63;3.05;;;15.30;99.90;;;15.52;94.89;101421.66;5164753;28;20495;-72
2022/05/17 02:38:28;;;;;;;5.80;3.15;;;15.30;99.90;;;15.45;94.49;101424.19;5164640;28;20050;-72
2022/05/17 02:41:00;;;;;;;5.00;3.50;;;15.30;99.90;;;15.42;94.44;101425.81;5164871;28;20407;-73
2022/05/17 02:43:32;;;;;;;4.53;2.65;;;15.20;99.90;;;15.40;94.61;101431.03;5164723;28;20047;-73
2022/05/17 02:46:04;;;;;;;5.13;3.30;;;15.20;99.90;;;15.39;94.76;101433.63;5164658;28;20407;-73
2022/05/17 02:48:37;;;;;;;6.15;3.28;;;15.10;99.90;;;15.35;94.54;101431.78;5164099;28;20054;-73
2022/05/17 02:51:11;;;;;;;6.03;3.15;;;15.20;99.90;;;15.32;94.50;101436.94;5164396;28;20101;-73
2022/05/17 02:53:44;;;;;;;7.28;3.03;;;15.10;99.90;;;15.28;94.22;101437.72;5167174;28;20054;-73
2022/05/17 02:56:16;;;;;;;7.10;3.22;;;15.10;99.90;;;15.23;94.50;101448.09;5168043;28;20050;-73
2022/05/17 02:58:48;;;;;;;5.07;2.92;;;15.00;99.90;;;15.19;94.36;101443.59;5168003;28;20050;-73
2022/05/17 03:01:20;;;;;;;4.93;3.08;;;15.00;99.90;;;15.15;94.44;101444.41;5168229;28;20509;-73
2022/05/17 03:03:53;;;;;;;5.78;3.10;;;14.90;99.90;;;15.13;94.59;101446.09;5167750;28;20042;-73
2022/05/17 03:06:25;;;;;;;5.25;3.47;;;14.90;99.90;;;15.11;94.74;101442.53;5168116;28;20053;-73
2022/05/17 03:08:58;;;;;;;5.10;3.10;;;14.90;99.90;;;15.10;94.59;101446.00;5167705;28;20054;-73
2022/05/17 03:11:30;;;;;;;5.85;3.25;;;14.90;99.90;;;15.07;94.30;101451.19;5167886;28;20509;-75
2022/05/17 03:14:02;;;;;;;4.85;3.15;;;14.90;99.90;;;15.03;94.12;101458.06;5167753;28;20046;-75
2022/05/17 03:16:35;;;;;;;5.82;3.42;;;14.80;99.90;;;15.01;94.45;101451.00;5167962;28;20064;-75
2022/05/17 03:19:08;;;;;;;5.55;2.83;;;14.80;99.90;;;14.98;94.17;101458.78;5167341;28;20050;-73
2022/05/17 03:21:40;;;;;;;5.80;3.55;;;14.80;99.90;;;14.98;94.58;101457.06;5167486;28;20047;-74
2022/05/17 03:24:14;;;;;;;4.90;3.05;;;14.80;99.90;;;14.95;94.15;101450.84;5167544;28;20478;-73
2022/05/17 03:26:46;;;;;;;6.80;3.47;;;14.70;99.90;;;14.91;94.19;101449.84;5167578;28;20046;-73
2022/05/17 03:29:18;;;;;;;5.13;3.38;;;14.70;99.90;;;14.88;94.32;101450.69;5166976;28;20053;-72
2022/05/17 03:31:50;;;;;;;6.07;3.30;;;14.70;99.90;;;14.86;94.29;101456.72;5167440;28;20046;-75
2022/05/17 03:34:23;;;;;;;5.32;3.33;;;14.70;99.90;;;14.84;94.43;101459.31;5167276;28;20053;-73
2022/05/17 03:36:55;;;;;;;4.38;3.05;;;14.70;99.90;;;14.83;94.25;101456.63;5167242;28;20511;-73
2022/05/17 03:39:29;;;;;;;5.78;3.20;;;14.60;99.90;;;14.80;94.33;101457.47;5167162;28;20050;-72
2022/05/17 03:42:01;;;;;;;5.85;3.30;;;14.60;99.90;;;14.76;94.13;101460.81;5167109;28;20050;-73
2022/05/17 03:44:33;;;;;;;4.82;3.00;;;14.60;99.90;;;14.74;94.19;101461.66;5167363;28;20057;-72
2022/05/17 03:47:06;;;;;;;6.28;3.22;;;14.60;99.90;;;14.72;94.10;101464.19;5166979;28;20061;-72
2022/05/17 03:49:39;;;;;;;4.75;2.95;;;14.50;99.90;;;14.71;94.42;101466.78;5166798;28;20072;-74
2022/05/17 03:52:11;;;;;;;6.50;3.28;;;14.50;99.90;;;14.70;94.34;101471.16;5167174;28;20058;-73
2022/05/17 03:54:45;;;;;;;4.75;2.97;;;14.50;99.90;;;14.68;94.38;101464.09;5167068;28;20056;-73
2022/05/17 03:57:17;;;;;;;4.47;2.70;;;14.50;99.90;;;14.67;94.39;101471.06;5167101;28;20043;-73
2022/05/17 03:59:49;;;;;;;5.25;3.25;;;14.50;99.90;;;14.65;94.83;101476.25;5166629;28;20062;-73
2022/05/17 04:02:22;;;;;;;6.47;3.58;;;14.50;99.90;;;14.63;94.69;101474.44;5166974;28;20046;-74
2022/05/17 04:04:54;;;;;;;6.13;3.33;;;14.50;99.90;;;14.64;94.85;101481.47;5166709;28;20050;-73
2022/05/17 04:07:26;;;;;;;5.60;3.03;;;14.50;99.90;;;14.63;94.94;101477.97;5166533;28;20054;-72
2022/05/17 04:10:00;;;;;;;5.88;3.28;;;14.50;99.90;;;14.65;95.11;101478.88;5166715;28;20480;-72
2022/05/17 04:12:32;;;;;;;5.50;3.10;;;14.50;99.90;;;14.64;94.87;101470.97;5166776;28;20054;-72
2022/05/17 04:15:06;;;;;;;6.30;3.55;;;14.40;99.90;;;14.65;95.27;101473.63;5166494;28;20050;-72
2022/05/17 04:17:38;;;;;;;6.40;4.00;;;14.50;99.90;;;14.69;95.58;101477.25;5166574;28;20407;-72
2022/05/17 04:20:12;;;;;;;6.30;3.70;;;14.50;99.90;;;14.76;95.65;101476.56;5166416;28;20517;-73
2022/05/17 04:22:46;;;;;;;5.40;3.20;;;14.60;99.90;;;14.83;95.37;101475.91;5166287;28;20050;-73
2022/05/17 04:25:23;;;;;;;5.57;3.40;;;14.60;99.90;;;14.90;95.30;101475.22;5166578;28;20053;-73
2022/05/17 04:27:55;;;;;;;5.65;3.03;;;14.70;99.90;;;14.95;95.44;101482.34;5166127;28;20046;-73
2022/05/17 04:30:28;;;;;;;5.93;3.13;;;14.70;99.90;;;14.99;95.48;101485.09;5166359;28;20069;-73
2022/05/17 04:33:01;;;;;;;5.63;3.22;;;14.80;99.90;;;15.04;95.63;101487.84;5276135;23;20053;-85
2022/05/17 04:35:33;;;;;;;5.57;3.17;;;14.80;99.90;;;15.06;95.43;101480.88;5174407;28;20050;-83
2022/05/17 04:38:07;;;;;;;5.35;3.08;;;14.90;99.90;;;15.10;95.74;101488.91;5172976;28;20500;-83
2022/05/17 04:40:41;;;;;;;5.57;3.35;;;14.90;99.90;;;15.11;95.86;101490.66;5171580;28;20050;-82
2022/05/17 04:43:13;;;;;;;;;;;14.90;99.90;;;15.14;96.12;101484.63;5171930;28;20054;-82
2022/05/17 04:45:45;;;;;;;5.25;3.00;;;14.90;99.90;;;15.18;96.22;101481.22;5171840;28;19921;-84
2022/05/17 04:48:17;;;;;;;5.07;3.08;;;15.00;99.90;;;15.25;96.51;101482.28;5171612;28;20056;-84
2022/05/17 04:50:49;;;;;;;6.10;3.50;;;15.00;99.90;;;15.38;97.25;101477.38;5171283;28;20051;-84
2022/05/17 04:53:21;;;;;;;8.45;4.35;;;15.20;99.90;;;15.55;97.31;101475.19;5170749;28;20062;-82
2022/05/17 04:55:55;;;;;;;7.65;3.83;;;15.30;99.90;;;15.74;97.52;101476.59;5170946;28;20046;-84
2022/05/17 04:58:27;;;;;;;8.20;4.47;;;15.50;99.90;;;15.97;97.17;101480.66;5170876;28;20058;-84
2022/05/17 05:00:59;;;;;;;7.18;4.22;;;15.70;99.90;;;16.21;96.01;101482.94;5171059;28;20319;-84
2022/05/17 05:03:32;;;;;;;8.27;4.55;;;15.90;99.90;;;16.45;94.82;101487.00;5170855;28;20050;-83
2022/05/17 05:06:04;;;;;;;5.95;4.10;;;16.10;99.90;;;16.61;93.06;101493.47;5171978;28;20053;-84
2022/05/17 05:08:36;;;;;;;6.63;4.13;;;16.20;99.90;;;16.73;91.33;101496.38;5171706;28;20056;-84
2022/05/17 05:11:10;;;;;;;5.97;3.67;;;16.40;99.90;;;16.85;90.25;101494.00;5172204;28;20048;-83
2022/05/17 05:13:42;;;;;;;6.07;4.07;;;16.50;99.90;;;16.97;89.51;101499.53;5171832;28;20064;-84
2022/05/17 05:16:15;;;;;;;7.18;4.07;;;16.60;99.90;;;17.09;89.32;101505.03;5172253;28;20417;-82
2022/05/17 05:18:47;;;;;;;5.03;3.65;;;16.70;99.90;;;17.29;89.23;101512.44;5171691;28;20072;-84
2022/05/17 05:21:20;;;;;;;7.65;4.47;;;16.80;99.90;;;17.45;88.18;101510.97;5170316;28;20054;-84
2022/05/17 05:23:52;;;;;;;5.80;3.35;;;17.00;99.90;;;17.66;87.26;101507.81;5170190;28;20134;-83
2022/05/17 05:26:26;;;;;;;6.85;4.00;;;17.20;99.90;;;17.86;85.85;101514.31;5168776;28;20047;-83
2022/05/17 05:28:58;;;;;;;4.82;3.63;;;17.40;99.90;;;17.96;83.91;101512.75;5169325;28;20060;-84
2022/05/17 05:31:30;;;;;;;6.25;3.90;;;17.50;99.90;;;18.03;83.85;101526.06;5169150;28;20420;-84
2022/05/17 05:34:02;;;;;;;7.63;4.05;;;17.60;99.90;;;18.06;83.16;101518.19;5169467;28;20424;-84
2022/05/17 05:36:34;;;;;;;5.25;3.00;;;17.70;99.90;;;18.05;82.70;101521.69;5168631;28;20072;-84
2022/05/17 05:39:06;;;;;;;6.93;4.07;;;17.70;99.90;;;18.00;82.22;101517.22;5169440;28;20050;-84
2022/05/17 05:41:39;;;;;;;6.70;3.95;;;17.70;99.90;;;17.79;81.75;101515.09;5168751;28;20050;-84
2022/05/17 05:44:11;;;;;;;6.05;3.35;;;17.60;99.90;;;17.69;82.18;101524.56;5170117;28;20058;-85
2022/05/17 05:46:44;;;;;;;6.68;3.70;;;17.50;99.90;;;17.72;83.08;101518.50;5170467;28;20049;-85
2022/05/17 05:49:16;;;;;;;5.85;3.63;;;17.50;99.90;;;17.79;83.17;101521.25;5169674;28;20149;-85
2022/05/17 05:51:48;;;;;;;10.50;4.38;;;17.50;99.90;;;18.01;83.75;101514.59;5171120;28;20090;-85
2022/05/17 05:54:20;;;;;;;5.85;3.47;;;17.60;99.90;;;18.30;82.97;101519.41;5171053;28;20112;-84
2022/05/17 05:56:53;;;;;;;6.55;3.55;;;17.80;99.90;;;18.47;80.98;101515.28;5171305;28;20058;-85
2022/05/17 05:59:28;;;;;;;6.35;3.30;;;18.00;99.90;;;18.61;80.53;101516.34;5170931;28;20047;-82
2022/05/17 06:01:59;;;;;;;;;;;18.10;99.90;;;18.63;79.77;101511.97;5170865;28;20162;-84
2022/05/17 06:04:32;;;;;;;5.40;3.25;;;18.20;99.90;;;18.73;79.83;101517.41;5170914;28;19922;-83
2022/05/17 06:07:05;;;;;;;7.30;3.33;;;18.30;99.90;;;18.76;79.22;101528.88;5170256;28;20042;-82
2022/05/17 06:09:37;;;;;;;4.53;2.92;;;18.30;99.90;;;18.73;78.76;101525.34;5170865;28;20456;-83
2022/05/17 06:12:12;;;;;;;4.20;2.60;;;18.40;99.90;;;18.69;78.66;101525.28;5171495;28;20050;-82
2022/05/17 06:14:44;;;;;;;3.47;2.70;;;18.30;99.90;;;18.68;78.58;101527.91;5172565;28;20050;-82
2022/05/17 06:17:15;;;;;;;3.40;2.58;;;18.30;99.90;;;18.69;78.55;101530.56;5175132;28;20060;-81
2022/05/17 06:19:47;;;;;;;5.75;3.25;;;18.30;99.90;;;18.75;78.75;101529.75;5149147;28;20043;-81
2022/05/17 06:22:19;;;;;;;5.88;3.15;;;18.30;99.90;;;18.83;79.12;101533.38;5149247;28;20055;-82
2022/05/17 06:24:51;;;;;;;4.82;3.30;;;18.40;99.90;;;18.99;78.62;101529.19;5139344;28;20062;-81
2022/05/17 06:27:25;;;;;;;6.47;3.40;;;18.50;99.90;;;19.00;77.33;101536.25;5140450;28;20051;-82
2022/05/17 06:29:57;;;;;;;4.97;2.80;;;18.50;99.90;;;18.95;76.73;101535.28;5142358;28;20053;-83
2022/05/17 06:32:29;;;;;;;8.63;3.72;;;18.50;99.90;;;18.83;77.02;101538.66;5135410;28;20055;-82
2022/05/17 06:35:01;;;;;;;4.22;3.03;;;18.50;99.90;;;18.74;77.34;101535.03;5141854;28;20058;-82
2022/05/17 06:37:33;;;;;;;5.40;2.70;;;18.40;99.90;;;18.67;77.71;101534.06;5146283;28;20062;-82
2022/05/17 06:40:08;;;;;;;5.13;2.83;;;18.40;99.90;;;18.65;78.17;101538.41;5151726;28;20046;-83
2022/05/17 06:42:41;;;;;;;;;;;18.30;99.90;;;18.67;78.38;101537.59;5143491;28;20042;-81
2022/05/17 06:45:13;;;;;;;5.75;2.50;;;18.30;99.90;;;18.73;78.26;101542.06;5142022;28;19922;-81
2022/05/17 06:47:45;;;;;;;3.88;2.58;;;18.30;99.90;;;18.80;78.45;101537.75;5134258;28;20054;-82
2022/05/17 06:50:18;;;;;;;5.35;2.72;;;18.40;99.90;;;18.88;78.36;101546.66;5145672;28;20058;-82
2022/05/17 06:52:50;;;;;;;4.95;2.53;;;18.50;99.90;;;18.96;78.24;101540.59;5147264;28;20053;-82
2022/05/17 06:55:23;;;;;;;3.85;2.60;;;18.50;99.90;;;19.08;77.86;101538.97;5162122;28;20372;-81
2022/05/17 06:57:56;;;;;;;4.68;2.58;;;18.60;99.90;;;19.23;77.90;101537.41;5147232;28;20050;-82
2022/05/17 07:00:28;;;;;;;4.05;2.50;;;18.70;99.90;;;19.38;77.80;101535.78;5142377;28;20050;-81
2022/05/17 07:03:00;;;;;;;6.65;2.83;;;18.80;99.90;;;19.48;77.34;101542.94;5134812;28;20054;-82
2022/05/17 07:05:32;;;;;;;4.18;2.95;;;18.90;99.90;;;19.55;77.11;101536.81;5131487;29;20514;-82
2022/05/17 07:08:05;;;;;;;5.03;2.80;;;19.10;99.90;;;19.62;76.76;101543.97;5132012;29;20051;-83
2022/05/17 07:13:27;;;;;;;3.85;2.20;;;19.20;99.90;;;19.84;76.46;101549.50;5130460;29;20146;-84
2022/05/17 07:16:00;;;;;;;6.38;2.90;;;19.30;99.90;;;19.93;75.98;101546.91;5131537;29;20057;-83
2022/05/17 07:18:32;;;;;;;5.88;2.20;;;19.40;99.90;;;19.99;75.13;101544.31;5132474;29;20055;-83
2022/05/17 07:21:04;;;;;;;3.25;2.17;;;19.40;99.90;;;20.02;74.80;101547.88;5138123;28;20063;-81
2022/05/17 07:23:36;;;;;;;4.90;2.63;;;19.50;99.90;;;20.09;74.54;101551.47;5152813;28;20055;-81
2022/05/17 07:26:09;;;;;;;4.95;2.47;;;19.50;99.90;;;20.14;73.82;101556.78;5151773;28;20410;-81
2022/05/17 07:28:45;;;;;;;3.67;2.30;;;19.60;99.90;;;20.15;73.15;101561.19;5152335;28;20481;-82
2022/05/17 07:31:17;;;;;;;3.58;2.13;;;19.60;99.90;;;20.15;72.93;101556.81;5152439;28;20049;-83
2022/05/17 07:33:49;;;;;;;3.65;2.17;;;19.60;99.90;;;20.20;72.18;101557.69;5156415;28;20485;-81
2022/05/17 07:36:21;;;;;;;2.65;1.80;;;19.60;99.90;;;20.28;71.51;101547.19;5155192;28;20050;-81
2022/05/17 07:38:53;;;;;;;3.72;1.95;;;19.70;99.90;;;20.39;71.33;101544.59;5154539;28;20488;-82
2022/05/17 07:41:25;;;;;;;4.38;2.50;;;19.80;99.90;;;20.57;71.14;101560.63;5154886;28;20054;-81
2022/05/17 07:43:59;;;;;;;4.82;2.58;;;19.90;99.90;;;20.71;71.01;101558.94;5154019;28;20061;-82
2022/05/17 07:46:32;;;;;;;3.55;2.20;;;20.00;99.90;;;20.79;70.70;101566.94;5153180;28;20058;-83
2022/05/17 07:49:06;;;;;;;6.85;2.97;;;20.10;99.90;;;20.85;70.13;101567.84;5152522;28;20047;-79
2022/05/17 07:51:38;;;;;;;5.10;2.33;;;20.10;99.90;;;20.90;70.39;101561.69;5154634;28;20464;-80
2022/05/17 07:54:10;;;;;;;4.03;2.20;;;20.20;99.90;;;20.92;70.47;101562.56;5158180;28;20051;-82
2022/05/17 07:56:42;;;;;;;6.43;2.40;;;20.30;99.90;;;20.95;70.66;101558.19;5159010;28;20117;-84
2022/05/17 07:59:15;;;;;;;5.68;2.67;;;20.30;99.90;;;21.00;70.09;101560.88;5151440;28;20126;-81
2022/05/17 08:01:47;;;;;;;5.82;2.20;;;20.40;99.90;;;21.02;70.11;101546.72;5153942;28;20054;-84
2022/05/17 08:04:19;;;;;;;4.35;2.10;;;20.40;99.90;;;21.17;70.00;101547.66;5154343;28;20050;-83
2022/05/17 08:06:51;;;;;;;4.35;2.10;;;20.50;99.90;;;21.32;69.60;101553.94;5050216;28;20126;-82
2022/05/17 08:09:24;;;;;;;4.55;2.10;;;20.60;99.90;;;21.53;68.69;101557.53;5084470;28;20077;-83
2022/05/17 08:11:56;;;;;;;3.42;2.20;;;20.70;99.90;;;21.71;67.90;101562.81;5153601;28;20046;-81
2022/05/17 08:14:30;;;;;;;6.30;2.45;;;20.90;99.90;;;21.89;67.05;101556.66;5156117;28;20110;-81
2022/05/17 08:17:02;;;;;;;4.57;2.50;;;21.00;99.90;;;22.08;66.52;101562.84;5154267;28;20081;-80
2022/05/17 08:19:35;;;;;;;7.20;2.97;;;21.20;99.90;;;22.33;65.67;101559.31;5148626;28;20369;-82
2022/05/17 08:22:12;;;;;;;4.63;2.55;;;21.40;99.90;;;22.64;63.57;101559.25;5153545;28;20137;-82
2022/05/17 08:27:36;;;;;;;6.13;2.72;;;21.90;99.90;;;23.87;61.49;101565.75;5153766;28;20057;-82
2022/05/17 08:30:15;;;;;;;6.13;2.47;;;22.40;99.90;;;24.42;58.96;101567.94;5152937;28;20050;-81
2022/05/17 08:35:44;;;;;;;4.35;2.20;;;23.30;98.00;;;25.50;54.91;101560.41;5144399;28;20133;-87
2022/05/17 08:38:22;;;;;;;4.60;2.20;;;23.70;96.80;;;25.85;52.93;101561.69;5149967;28;20061;-85
2022/05/17 08:41:13;;;;;;;5.47;2.53;;;24.00;95.30;;;25.85;51.98;101561.69;5151915;28;20061;-87
2022/05/17 08:43:53;;;;;;;5.05;2.40;;;24.30;93.90;;;25.72;52.56;101568.97;5171026;28;20031;-91
2022/05/17 08:46:45;;;;;;;6.10;2.40;;;24.30;93.50;;;25.64;52.27;101571.75;5137471;28;20082;-87
2022/05/17 08:49:21;;;;;;;4.72;2.53;;;24.30;93.00;;;25.73;51.85;101581.44;5151508;28;20442;-87
2022/05/17 08:51:58;;;;;;;5.20;2.60;;;24.30;92.60;;;26.29;51.85;101574.28;5149674;28;20054;-87
2022/05/17 08:54:35;;;;;;;5.75;2.60;;;24.60;92.90;;;26.58;50.56;101570.22;5151532;28;20051;-87
2022/05/17 08:57:16;;;;;;;5.15;2.15;;;24.90;91.80;;;26.86;49.74;101563.38;5151192;28;20098;-87
2022/05/17 08:59:48;;;;;;;4.15;2.33;;;25.10;91.20;;;27.30;47.49;101562.47;5151540;28;20050;-88
2022/05/17 09:02:33;;;;;;;4.07;2.17;;;25.40;89.10;;;27.65;45.69;101573.28;5151227;28;20061;-87
2022/05/17 09:05:17;;;;;;;5.88;2.22;;;25.70;85.40;;;28.18;45.30;101561.28;5151029;28;20050;-87
2022/05/17 09:07:57;;;;;;;5.80;1.90;;;26.10;84.00;;;28.56;44.53;101559.38;5151519;28;20051;-87
2022/05/17 09:10:38;;;;;;;4.68;1.83;;;26.40;82.50;;;29.09;43.09;101559.69;5151410;28;20061;-88
2022/05/17 09:13:15;;;;;;;4.63;2.00;;;26.80;80.80;;;29.38;41.44;101565.00;5151028;28;20046;-88
2022/05/17 09:15:48;;;;;;;5.10;1.95;;;27.10;77.40;;;29.21;41.63;101559.28;5152234;28;20054;-86
2022/05/17 09:18:23;;;;;;;2.83;1.63;;;27.20;75.90;;;28.98;42.27;101556.44;5151452;28;20067;-87
2022/05/17 09:20:55;;;;;;;4.25;1.80;;;27.10;75.20;;;28.63;42.78;101550.25;5154787;28;20055;-87
2022/05/17 09:23:28;;;;;;;3.15;1.50;;;27.00;75.00;;;28.26;42.55;101551.22;5159009;28;20058;-92
2022/05/17 09:26:08;;;;;;;5.32;1.90;;;26.80;74.10;;;27.73;42.63;101556.16;5162310;28;20050;-87
2022/05/17 09:28:51;;;;;;;5.40;1.50;;;26.50;73.00;;;27.36;42.35;101552.53;5151770;28;20051;-87
2022/05/17 09:31:31;;;;;;;5.40;1.60;;;26.20;72.00;;;27.11;43.86;101552.22;5151783;28;20069;-87
2022/05/17 09:34:08;;;;;;;3.53;1.60;;;26.00;73.50;;;26.73;44.88;101559.19;5151512;28;20054;-86
2022/05/17 09:36:45;;;;;;;2.13;1.38;;;25.70;74.10;;;26.32;45.12;101552.84;5152321;28;20057;-88
2022/05/17 09:39:22;;;;;;;4.13;1.63;;;25.50;74.30;;;26.13;46.53;101556.75;5151391;28;20042;-87
2022/05/17 09:41:58;;;;;;;4.60;1.42;;;25.30;75.70;;;26.07;47.75;101557.72;5151654;28;20070;-87
2022/05/17 09:44:33;;;;;;;3.60;1.25;;;25.10;77.70;;;25.97;46.90;101558.81;5151763;28;20515;-87
2022/05/17 09:47:07;;;;;;;3.80;1.52;;;25.00;76.80;;;25.94;46.74;101561.50;5152121;28;20142;-87
2022/05/17 09:52:38;;;;;;;3.20;1.50;;;25.00;78.30;;;26.01;47.28;101547.16;5151439;28;20105;-86
2022/05/17 09:55:23;;;;;;;2.97;1.23;;;25.00;77.70;;;26.05;46.84;101542.66;5152287;28;20054;-86
2022/05/17 09:58:00;;;;;;;3.20;1.25;;;25.00;77.10;;;26.08;46.78;101543.50;5152578;28;20051;-87
2022/05/17 10:00:40;;;;;;;4.45;1.40;;;25.00;76.50;;;26.12;45.23;101544.31;5152288;28;20046;-87
2022/05/17 10:03:31;;;;;;;2.45;1.20;;;25.10;75.00;;;26.16;45.85;101541.56;5155794;28;20057;-91
2022/05/17 10:06:09;;;;;;;3.38;1.30;;;25.20;75.50;;;26.08;44.28;101543.50;5155846;28;20059;-88
2022/05/17 10:08:47;;;;;;;1.88;0.90;;;25.10;73.20;;;25.96;44.11;101546.38;5155474;28;20101;-90
2022/05/17 10:11:24;;;;;;;1.23;0.60;;;25.00;72.60;;;25.75;43.45;101544.03;5155670;28;20452;-86
2022/05/17 10:14:16;;;;;;;0.88;0.70;;;24.90;71.20;;;25.60;44.77;101545.13;5155404;28;20505;-85
2022/05/17 10:16:53;;;;;;;1.23;0.80;;;24.80;72.70;;;25.53;44.46;101549.69;5155937;28;20078;-87
2022/05/17 10:19:40;;;;;;;0.73;0.43;;;24.70;72.20;;;25.48;44.10;101543.53;5155103;28;20050;-86
2022/05/17 10:22:23;;;;;;;1.67;0.55;;;24.60;71.60;;;25.44;43.09;101540.03;5154946;28;20054;-86
2022/05/17 10:25:01;;;;;;;0.60;0.50;;;24.60;70.30;;;25.39;43.63;101539.22;5155300;28;20047;-87
2022/05/17 10:27:37;;;;;;;1.85;0.60;;;24.60;70.60;;;25.40;43.97;101534.75;5154949;28;20556;-86
2022/05/17 10:30:14;;;;;;;1.10;0.40;;;24.50;71.50;;;25.41;44.50;101534.72;5154726;28;20050;-86
2022/05/17 10:32:52;;;;;;;1.90;0.52;;;24.50;71.70;;;25.44;44.38;101539.16;5261933;23;20047;-74
2022/05/17 10:35:35;;;;;;;2.20;1.00;;;24.60;71.90;;;25.42;42.81;101539.16;5128992;28;20102;-74
2022/05/17 10:38:12;;;;;;;1.42;0.57;;;24.50;70.00;;;25.37;43.24;101532.16;5135827;28;20055;-76
2022/05/17 10:40:47;;;;;;;1.33;0.50;;;24.50;70.20;;;25.40;44.05;101526.75;5128490;29;20062;-74
2022/05/17 10:43:25;;;;;;;1.10;0.50;;;24.50;71.20;;;25.44;42.94;101520.47;5128098;29;20052;-73
2022/05/17 10:46:00;;;;;;;2.15;0.50;;;24.60;69.90;;;25.50;41.89;101520.38;5128206;29;20054;-74
2022/05/17 10:48:51;;;;;;;0.90;0.47;;;24.60;68.50;;;25.49;40.75;101515.91;5127945;28;20051;-74
2022/05/17 10:51:30;;;;;;;2.10;0.60;;;24.60;66.90;;;25.44;41.14;101512.47;5128173;29;20051;-75
2022/05/17 10:54:13;;;;;;;1.38;0.40;;;24.60;66.90;;;25.42;41.84;101514.25;5129207;29;20054;-74
2022/05/17 10:56:54;;;;;;;0.63;0.45;;;24.60;67.70;;;25.43;41.63;101508.03;5127791;29;20150;-74